Date,TemperatureHighF,TemperatureAvgF,TemperatureLowF,DewpointHighF,DewpointAvgF,DewpointLowF,HumidityHigh,HumidityAvg,HumidityLow,PressureMaxIn,PressureMinIn,WindSpeedMaxMPH,WindSpeedAvgMPH,GustSpeedMaxMPH,PrecipitationSumIn
2013-11-1,79.5,78.2,77.0,74.0,72.2,70.0,88,81,77,30.09,29.98,9,6,12,0.01
2013-11-2,79.6,78.0,75.1,73.0,71.5,70.0,87,80,75,30.10,30.00,9,6,13,0.02
2013-11-3,79.5,78.0,76.6,72.0,70.9,69.0,84,79,75,30.09,29.99,8,6,11,0.00
2013-11-4,78.9,77.6,75.6,72.0,71.1,69.0,86,80,76,30.05,29.95,6,4,7,0.00
2013-11-5,78.6,76.4,71.6,74.0,72.2,69.0,96,86,81,30.02,29.94,6,2,7,0.24
2013-11-6,79.7,74.9,71.3,73.0,71.0,69.0,93,87,78,29.99,29.88,3,1,4,0.01
2013-11-7,80.4,75.7,68.5,75.0,71.9,67.0,95,88,79,29.99,29.89,5,2,7,0.02
2013-11-8,79.7,77.6,73.6,75.0,73.3,71.0,92,86,82,29.99,29.88,8,2,12,0.14
2013-11-9,77.6,75.5,71.7,74.0,72.3,70.0,97,90,84,29.94,29.84,8,4,12,2.33
2013-11-10,76.6,75.0,71.0,72.0,69.6,65.0,96,83,69,30.00,29.87,10,7,13,0.73
2013-11-11,76.4,74.2,67.5,68.0,65.7,62.0,90,75,63,29.99,29.91,10,4,11,0.07
2013-11-12,76.0,71.7,63.5,68.0,64.3,61.0,93,78,66,30.02,29.92,6,2,9,0.01
2013-11-13,76.4,71.2,63.1,68.0,65.0,61.0,94,81,69,30.02,29.92,3,0,4,0.01
2013-11-14,77.5,73.7,70.7,72.0,69.7,66.0,95,87,80,30.02,29.91,3,0,4,0.12
2013-11-15,79.7,75.3,71.6,76.0,72.8,70.0,97,92,86,30.05,29.96,5,1,7,0.42
2013-11-16,79.2,78.1,77.3,74.0,73.1,71.0,87,84,80,30.06,29.96,6,4,8,0.00
2013-11-17,79.8,77.7,74.4,74.0,72.7,70.0,89,84,79,30.01,29.89,5,1,6,0.02
2013-11-18,80.5,75.2,69.2,75.0,71.1,67.0,94,87,79,29.97,29.87,6,1,6,0.00
2013-11-19,81.5,73.5,67.1,74.0,69.1,65.0,94,86,71,29.98,29.85,3,0,4,0.00
2013-11-20,78.9,73.9,68.8,74.0,70.6,67.0,95,89,83,30.00,29.89,2,0,2,0.00
2013-11-21,79.4,74.2,69.2,74.0,70.4,67.0,94,88,77,30.04,29.91,2,0,3,0.00
2013-11-22,79.2,74.5,68.2,73.0,70.0,67.0,96,86,77,30.04,29.95,5,2,7,0.00
2013-11-23,77.1,75.9,74.9,70.0,66.6,61.0,81,73,62,30.03,29.92,6,4,8,0.00
2013-11-24,77.4,74.5,64.3,68.0,64.4,57.0,79,71,57,30.02,29.92,7,3,9,0.00
2013-11-25,77.3,75.9,74.6,69.0,67.6,66.0,79,75,70,30.08,29.96,7,4,9,0.00
2013-11-26,77.8,76.4,75.2,72.0,69.7,68.0,84,80,76,30.11,29.98,7,4,9,0.00
2013-11-27,78.8,76.6,74.7,71.0,69.4,66.0,84,78,69,30.10,29.95,6,3,8,0.00
2013-11-28,80.8,77.2,73.8,73.0,70.7,68.0,87,80,66,30.02,29.91,6,1,11,0.00
2013-11-29,79.9,76.2,73.0,72.0,70.4,69.0,90,82,72,29.96,29.85,4,1,10,0.13
2013-11-30,80.5,77.7,74.2,71.0,69.8,68.0,87,76,69,29.96,29.85,4,1,7,0.06